Sonic Adventure (DX): Time Rankings

Records: Times | Rings | Scores | Races | Bosses | Freestyle
Leaders: Times | Rings | Scores | Races | Bosses | Freestyle | Overall
Rank Player Percent Points Date
1 Gamepro011 99.6% 19 07-27-16
2 Sonicspeedruner 98.8% 62 07-27-16
3 Dashjump 95.4% 249 07-27-16
4 Jawzun 95.3% 252 07-27-16
5 DarkPolarNight 93.2% 372 07-27-16
6 F-Man 92.2% 424 07-27-16
7 drminus 92.1% 429 07-27-16
8 THC98 91.5% 462 07-27-16
9 ike6252 89.7% 559 07-27-16
10 Avento128bits 89.4% 579 07-27-16
11 francisco 89.1% 592 07-27-16
12 DarkspinesSonic 88.6% 622 07-27-16
13 Marth 88.4% 632 07-27-16
14 ethmar 87.7% 668 07-27-16
15 frankoredstrato 87.2% 695 07-27-16
16 Paragod 84.4% 852 07-27-16
17 chainchumper 84.2% 861 07-27-16
18 HyperSonic7701 84.1% 867 07-27-16
19 TheRealShadnic 81.2% 1026 07-27-16
20 InferSaime 81.0% 1035 07-27-16
21 Stefan 79.6% 1115 07-27-16
22 Redd 79.1% 1138 07-27-16
23 PfoSonic 79.0% 1147 07-27-16
24 Coolfansonic 78.9% 1150 07-27-16
25 bertin 77.2% 1247 07-27-16
26 yoshifan 76.6% 1277 07-27-16
27 xXMegaManXx 76.6% 1280 07-27-16
28 Dave Cramer 75.1% 1362 07-27-16
29 RPGnutter 74.5% 1390 07-27-16
30 sonicam 73.0% 1475 07-27-16
31 Cybrax 73.0% 1476 07-27-16
32 Ring Rush 70.2% 1629 07-27-16
33 mike89 69.4% 1671 07-27-16
34 NintenDan 69.2% 1681 07-27-16
35 a_moustache 68.1% 1744 07-27-16
36 SkyLights 65.5% 1883 07-27-16
37 Nimrod 64.5% 1939 07-27-16
38 Combo 64.2% 1958 07-27-16
39 SADXTryHard 62.2% 2065 07-27-16
40 P1 Pause 61.3% 2116 07-27-16
41 Groudon199 59.4% 2216 07-27-16
42 Game_Complete 59.1% 2237 07-27-16
43 Shadow Jacky 58.8% 2254 07-27-16
44 AxlThunder 58.6% 2262 07-27-16
45 VMU Player Banned 57.7% 2310 07-27-16
46 Thorn 57.5% 2325 07-27-16
47 The Knuckles Chao 56.4% 2383 07-27-16
48 SB737 56.4% 2384 07-27-16
49 SadisticMystic 55.9% 2408 07-27-16
50 Chao_Fan 55.9% 2411 07-27-16
51 Parax 55.6% 2424 07-27-16
52 Mastakirby 55.4% 2436 07-27-16
53 LittleBigness 54.9% 2462 07-27-16
54 KinkyCadence 54.9% 2463 07-27-16
55 OmegaDJ 54.9% 2464 07-27-16
56 mauserman 54.8% 2470 07-27-16
57 Psyknux 54.4% 2490 07-27-16
58 Auriman1 54.2% 2502 07-27-16
59 magnum12 54.1% 2511 07-27-16
60 Turbos 53.7% 2528 07-27-16
61 GerbilSoft 53.2% 2555 07-27-16
62 GreatStar 53.0% 2570 07-27-16
63 Webber3000 52.5% 2597 07-27-16
64 Hipertails12 51.4% 2655 07-27-16
65 James_Bertolli 49.4% 2768 07-27-16
66 Cream147 49.0% 2790 07-27-16
67 welldooder64 48.2% 2830 07-27-16
68 Skylace 48.1% 2835 07-27-16
69 Quartz 47.8% 2853 07-27-16
70 Omega Rafael Santos 47.7% 2860 07-27-16
71 Psymar 47.6% 2864 07-27-16
72 Diamond 47.6% 2866 07-27-16
73 SonicWinDX 46.9% 2904 07-27-16
74 teamblackarms 46.5% 2924 07-27-16
75 Andrea Ritsu 45.8% 2960 07-27-16
76 buddychaos0415 45.6% 2974 07-27-16
77 SilverSonic 44.8% 3015 07-27-16
78 SilvertheAlmighty 44.4% 3038 07-27-16
79 WeegeeZV 44.0% 3059 07-27-16
80 itsPersonnal 44.0% 3061 07-27-16
81 metanightmare22 43.6% 3081 07-27-16
82 lordmetalsonic 41.5% 3198 07-27-16
83 Arch 41.1% 3221 07-27-16
84 videogamemaster777 40.2% 3270 07-27-16
85 Termon 40.1% 3272 07-27-16
86 supersonicfan 39.8% 3289 07-27-16
87 Drakodan 39.2% 3321 07-27-16
88 LilZero 38.9% 3338 07-27-16
89 Kanimayo_Jp 38.9% 3339 07-27-16
90 paulie9990 38.8% 3347 07-27-16
91 FuzZerd 38.6% 3356 07-27-16
92 supersonic465 38.6% 3359 07-27-16
93 eggFL 38.0% 3389 07-27-16
94 Don 37.3% 3429 07-27-16
95 danieldude 37.1% 3439 07-27-16
96 Siavash Tazari 36.4% 3475 07-27-16
97 Fr3nZy 35.9% 3503 07-27-16
98 f0rever_zer0 35.5% 3528 07-27-16
99 Cod4Scopes 35.2% 3542 07-27-16
100 Cyan Ryan 34.9% 3558 07-27-16
101 LinksDarkArrows 34.5% 3580 07-27-16
102 Therio 34.2% 3597 07-27-16
103 Austinf 33.9% 3613 07-27-16
104 elecmouse101 33.5% 3634 07-27-16
105 Staf 33.3% 3644 07-27-16
106 MiStEr_ShAoLiN 33.0% 3662 07-27-16
107 Twilisailor 32.6% 3685 07-27-16
108 BrokenArthritis 32.3% 3700 07-27-16
109 videogamer1014 32.3% 3702 07-27-16
110 Xia 31.8% 3730 07-27-16
111 AC-Tygo 31.6% 3741 07-27-16
112 welshmoose05 31.3% 3754 07-27-16
113 OddCook 30.7% 3787 07-27-16
114 The Great Lord Mick 30.4% 3804 07-27-16
115 Mcshuggets 29.9% 3835 07-27-16
116 Aitamen 29.8% 3838 07-27-16
117 Maxinfamily 29.7% 3843 07-27-16
118 Matt_TY 29.6% 3849 07-27-16
119 dabestgamer 29.4% 3862 07-27-16
120 joecoolgames 29.3% 3866 07-27-16
121 imazor017 28.7% 3898 07-27-16
122 Shadowthegreat 28.0% 3939 07-27-16
123 superjupi 27.9% 3944 07-27-16
124 SuperSonic101 27.8% 3945 07-27-16
125 Rolken 27.5% 3966 07-27-16
126 thewaytodawnnn 27.1% 3986 07-27-16
127 Hunters13 27.0% 3991 07-27-16
128 sonamyfan666 26.9% 3997 07-27-16
129 iarebored 26.6% 4011 07-27-16
130 koinu93 26.6% 4012 07-27-16
131 Spinballwizard 26.5% 4016 07-27-16
132 SaviourDC 26.4% 4022 07-27-16
133 SonicKnuckles 26.4% 4024 07-27-16
134 EngiNerd 25.5% 4073 07-27-16
135 adf 25.3% 4082 07-27-16
136 Megaman EXE565 24.7% 4117 07-27-16
137 The T 24.3% 4139 07-27-16
138 Sonic Singularity 23.7% 4171 07-27-16
139 Platformer 23.4% 4188 07-27-16
140 Pokemonmaster888 23.3% 4194 07-27-16
141 SeaWolf 23.2% 4197 07-27-16
142 timpkmn89 23.1% 4207 07-27-16
143 SuperBlitzCraig 22.6% 4231 07-27-16
144 Swift Hobo 22.6% 4233 07-27-16
145 Sondow 22.3% 4248 07-27-16
146 Rickyman48 22.0% 4263 07-27-16
147 KitsuneYamaro 21.7% 4282 07-27-16
148 FoxBoy 21.6% 4287 07-27-16
149 TFEC Headshot 21.0% 4318 07-27-16
150 Jerzia 20.9% 4324 07-27-16
151 Kogen Player Banned 20.8% 4330 07-27-16
152 SonataSpinDash 20.5% 4347 07-27-16
153 Starlight Sable 19.9% 4377 07-27-16
154 HyperSonic64 19.6% 4398 07-27-16
155 IsisDazs 19.5% 4399 07-27-16
156 crazy1993 19.1% 4423 07-27-16
157 andres430 19.0% 4430 07-27-16
158 SonicU260 18.0% 4482 07-27-16
159 SonicAD 17.6% 4504 07-27-16
160 MPit08 17.6% 4506 07-27-16
161 sonicd5 17.2% 4526 07-27-16
162 iSonicKid2K 16.9% 4543 07-27-16
163 dShadow 16.9% 4545 07-27-16
164 Cutiefox 16.3% 4579 07-27-16
165 BigAL49 16.2% 4581 07-27-16
166 Chawkk 16.1% 4587 07-27-16
167 Miles9999 16.0% 4591 07-27-16
168 Monkeh 16.0% 4594 07-27-16
169 DaDude 15.4% 4624 07-27-16
170 Drflash55 15.2% 4636 07-27-16
171 Bass 14.9% 4652 07-27-16
172 Cruizer 14.6% 4670 07-27-16
173 Destroyer121121 14.6% 4671 07-27-16
174 neaolas 14.5% 4675 07-27-16
175 Yish 14.5% 4676 07-27-16
176 zapp 14.4% 4683 07-27-16
177 superiorsonic 14.2% 4691 07-27-16
178 UninspiredUsername 14.2% 4692 07-27-16
179 gamefreak1292 13.9% 4709 07-27-16
180 Cooljay 13.5% 4729 07-27-16
181 Chaos_Overlord 13.0% 4757 07-27-16
182 Badlex727 12.4% 4791 07-27-16
182 Valfore 12.4% 4791 07-27-16
184 GarnetPrincess 12.3% 4795 07-27-16
185 soniccoloursunleashed 12.0% 4812 07-27-16
186 ShinigamiMachine 11.9% 4819 07-27-16
187 Sonicsuperstar1 11.4% 4842 07-27-16
188 booo95 11.1% 4860 07-27-16
189 SirTobbii 11.0% 4869 07-27-16
190 FocusSight64 10.9% 4871 07-27-16
191 Werey 10.9% 4872 07-27-16
192 Mo Player Banned 10.7% 4882 07-27-16
193 sonicspeed 10.6% 4888 07-27-16
194 N 10.4% 4899 07-27-16
195 Venick409 9.7% 4937 07-27-16
196 nman36 9.7% 4940 07-27-16
197 Sithwarrior26 9.6% 4942 07-27-16
198 ingx24 9.2% 4967 07-27-16
199 CyberShadow 9.1% 4970 07-27-16
200 Fozer 8.7% 4990 07-27-16
201 Colomb_30 8.6% 4998 07-27-16
202 Egor305 8.5% 5003 07-27-16
203 dekki1234 8.5% 5004 07-27-16
204 Regano1000 8.4% 5011 07-27-16
205 1stKirbyever 8.1% 5024 07-27-16
206 TimTH 7.9% 5034 07-27-16
207 nuckrieg 7.9% 5038 07-27-16
208 Brian_pso 7.7% 5046 07-27-16
209 douglas 7.7% 5048 07-27-16
210 Zip 7.5% 5059 07-27-16
211 TakaRikka 7.4% 5062 07-27-16
212 Th4tN1nj4Turtl3 7.4% 5063 07-27-16
213 wheatrich 7.1% 5080 07-27-16
214 Mariosonic15 7.1% 5082 07-27-16
215 niscool 6.7% 5101 07-27-16
216 ieatatsonic 6.7% 5102 07-27-16
217 MStitomix 6.7% 5103 07-27-16
218 HermitHelmet 6.6% 5105 07-27-16
219 Got4n 6.4% 5119 07-27-16
220 Cort_pso 6.3% 5121 07-27-16
221 Triseena 6.3% 5123 07-27-16
222 Jose_15 6.1% 5137 07-27-16
223 Artie 5.9% 5143 07-27-16
224 BlankTH 5.9% 5146 07-27-16
225 SuperSonicfan9595 5.8% 5150 07-27-16
226 Ace747 5.6% 5164 07-27-16
227 Richied 5.5% 5168 07-27-16
228 HHNNBBHHN 5.5% 5169 07-27-16
229 Paixii 5.3% 5181 07-27-16
230 Aiko 5.2% 5184 07-27-16
231 slade23 5.0% 5195 07-27-16
232 BallzeH 5.0% 5196 07-27-16
233 ArcticDragon 4.9% 5201 07-27-16
233 FSSRandomvids 4.9% 5201 07-27-16
235 Mankster101 4.9% 5202 07-27-16
236 BecauseWarAnvil 4.8% 5204 07-27-16
237 PsyBorg 4.8% 5205 07-27-16
238 Jamixesa 4.8% 5206 07-27-16
239 Nickson98 4.7% 5212 07-27-16
240 Crydio 4.6% 5216 07-27-16
241 TheUltraBlur 4.4% 5225 07-27-16
242 ReuelBrony 4.4% 5229 07-27-16
243 MarewBFN 4.2% 5236 07-27-16
244 stanski 4.2% 5237 07-27-16
245 tal39h 4.2% 5239 07-27-16
246 ALundstrom10 4.0% 5250 07-27-16
247 p0ker 4.0% 5251 07-27-16
248 knuckles_sonic8 4.0% 5252 07-27-16
249 Blue Infamy 3.9% 5253 07-27-16
250 ErrortheCucco 3.8% 5263 07-27-16
251 Rikum22 3.7% 5266 07-27-16
252 sonic1001 3.5% 5275 07-27-16
253 TheChaosEmeraIds 3.5% 5276 07-27-16
254 AJSIV 3.4% 5281 07-27-16
255 syco1098 3.4% 5282 07-27-16
256 Sonic the Hedgehod16 3.3% 5285 07-27-16
257 Calfd 3.2% 5294 07-27-16
257 sonicfan9 3.2% 5294 07-27-16
259 themachoman202 2.9% 5307 07-27-16
260 MK 2.9% 5308 07-27-16
261 Mr. Jones 2.8% 5317 07-27-16
262 BlackArmsShadow 2.7% 5318 07-27-16
262 Fivavoa 2.7% 5318 07-27-16
264 djmat 2.7% 5319 07-27-16
265 arcfx1985 2.7% 5320 07-27-16
266 ptorflaxendrosis 2.7% 5322 07-27-16
267 Sonique Hedgehog 2.7% 5323 07-27-16
268 FlandreScarlet9999vr 2.6% 5327 07-27-16
269 Zeldocto 2.5% 5330 07-27-16
270 BeeAwwb 2.5% 5334 07-27-16
271 KaM Mark MaK 2.4% 5335 07-27-16
272 ShadouZaHejjihoggu 2.3% 5342 07-27-16
273 darkstarblaze 2.2% 5347 07-27-16
274 Sonic The Star 2.2% 5349 07-27-16
275 darkersupershadic 2.2% 5350 07-27-16
276 SpiritDragon1995 2.1% 5351 07-27-16
277 Sarger001 2.1% 5353 07-27-16
278 Grady219 2.1% 5356 07-27-16
278 sonic29887 2.1% 5356 07-27-16
280 shadowblast63 Player Banned 2.0% 5361 07-27-16
281 Jawaah 1.9% 5362 07-27-16
282 Antek 1.9% 5366 07-27-16
283 Klaus 1.8% 5368 07-27-16
284 BioShadow 1.8% 5371 07-27-16
285 SkyBon 1.4% 5389 07-27-16
286 Shanekilz 1.4% 5390 07-27-16
287 isaihtb11 1.4% 5393 07-27-16
288 OhNoes! 1.3% 5395 07-27-16
289 zaktu40 1.3% 5396 07-27-16
290 gaara1234 1.3% 5399 07-27-16
291 S-MS32X-S 1.2% 5401 07-27-16
292 MastaToken 1.1% 5406 07-27-16
293 Mister_Slick 1.1% 5410 07-27-16
294 Sonic06Fan 1.0% 5413 07-27-16
295 Rush Hero 1.0% 5415 07-27-16
296 SonicMega167 0.9% 5420 07-27-16
297 oTaiIilLsS 0.8% 5422 07-27-16
297 SilverK 0.8% 5422 07-27-16
299 gamed00d 0.8% 5423 07-27-16
300 Burningskull123 0.5% 5439 07-27-16
301 Heroes_Hater 0.5% 5441 07-27-16
302 Sonicontherun 0.3% 5450 07-27-16
303 antiwwe 0.2% 5456 07-27-16
304 Iwannabelink 0.2% 5458 07-27-16
305 Genuine Hedgehog 0.2% 5460 07-27-16
306 dragondragon18 0.1% 5464 07-27-16
307 SonicK100 0.1% 5465 07-27-16
308 Tyrouble 0.0% 5470 07-27-16
309 LancexExWx 0.0% 5471 07-27-16
309 neji_hyuuga 0.0% 5471 07-27-16
309 Over 0.0% 5471 07-27-16
309 sdj6707 Player Banned 0.0% 5471 07-27-16
309 Tran Sonic Fan Player Banned 0.0% 5471 07-27-16

This page is using the New Data Table System. [FUTURE]

Game ID: 3 | Category ID: 1
Hits: 8,200 | Hits This Month: 61 | DB Calls: 24 | Mem Usage: 5.45 MB | Time: 0.19s | Printable

The Sonic Center v3.9
Copyright 2003-2011 by The Sonic Center Team.